Startpagina
METAR-TAF:

METAR-TAF

Vliegvelden :

Guwahati, India

breedte: 26-06-22N, lengte: 091-35-09E, hoogte: 49 m

Actueel weer

Dit bericht is 19 minuten geleden gemaakt, om 11:00 UTC
Wind 12 kt uit het zuiden
Temperatuur 31°C
Vochtigheid 75%
Druk 995 hPa
Zicht: 5000 m
Verspreide wolken op 1800 ft
Weinig wolken op 2500 ft, Cumulonimbus.
Gebroken wolken op 10000 ft
Heiigheid

METAR: VEGT 191100Z 18012KT 5000 HZ SCT018 FEW025CB BKN100 31/26 Q0995 NOSIG

Tijdstip: 16:49 (11:19 UTC)


TAF: ontbreekt

Waarnemingen en weersverwachtingen van meer dan 4000 vliegvelden (METAR en TAF).

De beschikbare stations zijn de gele en rode punten op de kaart.

Ga met uw muis naar het station om de naam te zien.

Klik dan om waarnemingen en weersverwachtingen te zien.

kaart wijzigen: klik op de groene knoppen met een zwart kruis om in te zoomen, op de groene knop met een streepje om uit te zoomen of op de groene pijlen voor aangrenzende kaarten.


METAR-TAF: